METAR AND TAF INFORMATION
METAR FOR PHNL
PHNL 230353Z 04011G20KT 10SM FEW023 SCT035 28/19 A3001 RMK AO2 SLP161 T02780194
PHNL 230253Z 03013G21KT 10SM FEW023 SCT035 30/19 A3000 RMK AO2 SLP159 T03000189 56010
PHNL 230153Z 03014G26KT 10SM FEW024 SCT035 30/19 A3001 RMK AO2 PK WND 02026/0149 SLP161 T03000189
PHNL 230326Z 2303/2406 05017G25KT P6SM FEW025 FEW040
FM230600 06010KT P6SM SCT025 BKN060
FM231800 06016G25KT P6SM VCSH SCT025 BKN040

 AIRPORT MAP

 RUNWAY INFORMATION
Runway 04L Runway length 6952 ft Runway width 150 ft
Runway elevation 10 ft Runway displaced threshold 0 ft Runway heading 53
Runway 22R Runway length 6952 ft Runway width 150 ft
Runway elevation 10 ft Runway displaced threshold 0 ft Runway heading 233
Runway 04R Runway length 9000 ft Runway width 150 ft
Runway elevation 9 ft Runway displaced threshold 0 ft Runway heading 53
Runway 22L Runway length 9000 ft Runway width 150 ft
Runway elevation 9 ft Runway displaced threshold 0 ft Runway heading 233
Runway 04W Runway length 3000 ft Runway width 150 ft
Runway elevation 0 ft Runway displaced threshold 0 ft Runway heading 51
Runway 22W Runway length 3000 ft Runway width 150 ft
Runway elevation 0 ft Runway displaced threshold 0 ft Runway heading 231
Runway 08L Runway length 12300 ft Runway width 150 ft
Runway elevation 12 ft Runway displaced threshold 0 ft Runway heading 90
Runway 26R Runway length 12300 ft Runway width 150 ft
Runway elevation 9 ft Runway displaced threshold 0 ft Runway heading 270
Runway 08R Runway length 12000 ft Runway width 200 ft
Runway elevation 10 ft Runway displaced threshold 0 ft Runway heading 90
Runway 26L Runway length 12000 ft Runway width 200 ft
Runway elevation 10 ft Runway displaced threshold 0 ft Runway heading 270
Runway 08W Runway length 5000 ft Runway width 300 ft
Runway elevation 0 ft Runway displaced threshold 0 ft Runway heading 91
Runway 26W Runway length 5000 ft Runway width 300 ft
Runway elevation 0 ft Runway displaced threshold 0 ft Runway heading 271

 AIRPORT FREQUENCIES

 AIRPORT NEAR NAVIGATION AIDS

-